sensor_id;sensor_type;location;lat;lon;timestamp;pressure;altitude;pressure_sealevel;temperature;humidity
48614;BME280;34408;51.426;5.444;2023-02-28T00:01:25;103010.56;;;5.81;48.14
48614;BME280;34408;51.426;5.444;2023-02-28T00:03:54;103009.88;;;5.79;47.87
48614;BME280;34408;51.426;5.444;2023-02-28T00:06:22;103008.31;;;5.76;47.78
48614;BME280;34408;51.426;5.444;2023-02-28T00:08:50;103006.63;;;5.75;47.68
48614;BME280;34408;51.426;5.444;2023-02-28T00:11:19;103004.66;;;5.77;47.80
48614;BME280;34408;51.426;5.444;2023-02-28T00:13:48;103009.31;;;5.75;47.74
48614;BME280;34408;51.426;5.444;2023-02-28T00:16:17;103013.78;;;5.75;47.68
48614;BME280;34408;51.426;5.444;2023-02-28T00:18:46;103012.25;;;5.72;47.68
48614;BME280;34408;51.426;5.444;2023-02-28T00:21:15;103006.19;;;5.70;47.77
48614;BME280;34408;51.426;5.444;2023-02-28T00:23:43;103001.28;;;5.66;47.96
48614;BME280;34408;51.426;5.444;2023-02-28T00:26:11;103009.16;;;5.67;48.14
48614;BME280;34408;51.426;5.444;2023-02-28T00:28:40;102991.16;;;5.60;47.87
48614;BME280;34408;51.426;5.444;2023-02-28T00:31:08;103005.78;;;5.65;47.96
48614;BME280;34408;51.426;5.444;2023-02-28T00:33:36;103003.09;;;5.65;48.00
48614;BME280;34408;51.426;5.444;2023-02-28T00:36:05;103006.59;;;5.66;48.04
48614;BME280;34408;51.426;5.444;2023-02-28T00:38:33;103017.28;;;5.66;48.04
48614;BME280;34408;51.426;5.444;2023-02-28T00:41:01;103010.25;;;5.65;48.11
48614;BME280;34408;51.426;5.444;2023-02-28T00:43:32;102999.28;;;5.58;47.96
48614;BME280;34408;51.426;5.444;2023-02-28T00:46:03;103014.88;;;5.63;48.37
48614;BME280;34408;51.426;5.444;2023-02-28T00:48:31;103014.03;;;5.62;47.98
48614;BME280;34408;51.426;5.444;2023-02-28T00:50:59;103015.88;;;5.62;48.06
48614;BME280;34408;51.426;5.444;2023-02-28T00:53:27;103009.81;;;5.60;47.98
48614;BME280;34408;51.426;5.444;2023-02-28T00:55:55;103009.81;;;5.60;48.21
48614;BME280;34408;51.426;5.444;2023-02-28T00:58:23;103014.44;;;5.57;48.42
48614;BME280;34408;51.426;5.444;2023-02-28T01:00:50;103015.44;;;5.56;48.39
48614;BME280;34408;51.426;5.444;2023-02-28T01:03:21;103010.22;;;5.55;48.11
48614;BME280;34408;51.426;5.444;2023-02-28T01:05:51;102993.94;;;5.48;48.10
48614;BME280;34408;51.426;5.444;2023-02-28T01:08:19;103012.91;;;5.55;48.25
48614;BME280;34408;51.426;5.444;2023-02-28T01:10:47;103018.81;;;5.59;48.10
48614;BME280;34408;51.426;5.444;2023-02-28T01:13:16;103025.13;;;5.57;48.35
48614;BME280;34408;51.426;5.444;2023-02-28T01:15:46;103020.63;;;5.58;48.15
48614;BME280;34408;51.426;5.444;2023-02-28T01:18:16;103021.59;;;5.57;48.28
48614;BME280;34408;51.426;5.444;2023-02-28T01:20:45;103023.44;;;5.56;48.31
48614;BME280;34408;51.426;5.444;2023-02-28T01:23:13;103017.97;;;5.58;48.65
48614;BME280;34408;51.426;5.444;2023-02-28T01:25:41;103013.75;;;5.55;48.69
48614;BME280;34408;51.426;5.444;2023-02-28T01:28:09;103027.22;;;5.54;48.12
48614;BME280;34408;51.426;5.444;2023-02-28T01:30:36;103028.91;;;5.55;48.37
48614;BME280;34408;51.426;5.444;2023-02-28T01:33:04;103022.00;;;5.52;48.37
48614;BME280;34408;51.426;5.444;2023-02-28T01:35:32;103027.91;;;5.56;48.39
48614;BME280;34408;51.426;5.444;2023-02-28T01:38:01;103027.06;;;5.55;48.44
48614;BME280;34408;51.426;5.444;2023-02-28T01:40:46;103015.84;;;5.52;48.36
48614;BME280;34408;51.426;5.444;2023-02-28T01:43:21;103021.31;;;5.50;48.28
48614;BME280;34408;51.426;5.444;2023-02-28T01:45:50;103027.63;;;5.49;48.58
48614;BME280;34408;51.426;5.444;2023-02-28T01:48:19;103015.97;;;5.50;48.19
48614;BME280;34408;51.426;5.444;2023-02-28T01:50:49;103004.28;;;5.42;48.16
48614;BME280;34408;51.426;5.444;2023-02-28T01:53:21;103020.31;;;5.51;48.54
48614;BME280;34408;51.426;5.444;2023-02-28T01:55:51;103013.44;;;5.49;48.41
48614;BME280;34408;51.426;5.444;2023-02-28T01:58:20;103008.25;;;5.47;48.66
48614;BME280;34408;51.426;5.444;2023-02-28T02:00:49;103004.72;;;5.47;48.85
48614;BME280;34408;51.426;5.444;2023-02-28T02:03:18;102998.69;;;5.45;48.27
48614;BME280;34408;51.426;5.444;2023-02-28T02:05:47;102998.81;;;5.43;48.74
48614;BME280;34408;51.426;5.444;2023-02-28T02:08:21;102997.00;;;5.44;48.83
48614;BME280;34408;51.426;5.444;2023-02-28T02:10:51;102993.50;;;5.43;48.82
48614;BME280;34408;51.426;5.444;2023-02-28T02:13:30;102987.31;;;5.43;48.54
48614;BME280;34408;51.426;5.444;2023-02-28T02:16:23;102995.19;;;5.44;48.79
48614;BME280;34408;51.426;5.444;2023-02-28T02:19:06;102983.81;;;5.42;48.54
48614;BME280;34408;51.426;5.444;2023-02-28T02:24:53;102983.09;;;5.40;48.46
48614;BME280;34408;51.426;5.444;2023-02-28T02:30:33;102976.06;;;5.39;48.62
48614;BME280;34408;51.426;5.444;2023-02-28T02:33:28;102970.47;;;5.42;49.02
48614;BME280;34408;51.426;5.444;2023-02-28T02:36:08;102978.75;;;5.39;48.70
48614;BME280;34408;51.426;5.444;2023-02-28T02:38:47;102969.06;;;5.38;48.73
48614;BME280;34408;51.426;5.444;2023-02-28T02:41:18;102968.22;;;5.38;49.00
48614;BME280;34408;51.426;5.444;2023-02-28T02:43:51;102972.69;;;5.37;48.42
48614;BME280;34408;51.426;5.444;2023-02-28T02:46:23;102978.88;;;5.38;48.72
48614;BME280;34408;51.426;5.444;2023-02-28T02:48:55;102987.84;;;5.37;48.68
48614;BME280;34408;51.426;5.444;2023-02-28T02:51:26;102981.81;;;5.35;48.52
48614;BME280;34408;51.426;5.444;2023-02-28T02:54:00;102974.66;;;5.35;48.42
48614;BME280;34408;51.426;5.444;2023-02-28T02:56:31;102988.13;;;5.34;48.17
48614;BME280;34408;51.426;5.444;2023-02-28T02:59:03;102989.38;;;5.30;48.47
48614;BME280;34408;51.426;5.444;2023-02-28T03:01:32;102992.75;;;5.32;48.53
48614;BME280;34408;51.426;5.444;2023-02-28T03:04:05;102984.88;;;5.30;48.57
48614;BME280;34408;51.426;5.444;2023-02-28T03:06:35;102994.69;;;5.30;48.86
48614;BME280;34408;51.426;5.444;2023-02-28T03:09:03;102992.31;;;5.27;48.66
48614;BME280;34408;51.426;5.444;2023-02-28T03:11:32;103000.56;;;5.23;48.51
48614;BME280;34408;51.426;5.444;2023-02-28T03:14:30;102989.91;;;5.23;48.43
48614;BME280;34408;51.426;5.444;2023-02-28T03:17:16;102990.03;;;5.22;48.42
48614;BME280;34408;51.426;5.444;2023-02-28T03:19:55;102984.72;;;5.22;48.98
48614;BME280;34408;51.426;5.444;2023-02-28T03:22:43;102984.72;;;5.22;48.84
48614;BME280;34408;51.426;5.444;2023-02-28T03:25:21;102991.03;;;5.21;49.07
48614;BME280;34408;51.426;5.444;2023-02-28T03:28:01;102987.38;;;5.22;49.14
48614;BME280;34408;51.426;5.444;2023-02-28T03:30:36;102975.03;;;5.21;48.86
48614;BME280;34408;51.426;5.444;2023-02-28T03:33:10;102983.03;;;5.21;48.99
48614;BME280;34408;51.426;5.444;2023-02-28T03:35:42;102981.19;;;5.21;48.38
48614;BME280;34408;51.426;5.444;2023-02-28T03:38:17;102986.53;;;5.21;48.43
48614;BME280;34408;51.426;5.444;2023-02-28T03:40:48;102985.69;;;5.21;48.47
48614;BME280;34408;51.426;5.444;2023-02-28T03:43:24;102981.38;;;5.20;48.99
48614;BME280;34408;51.426;5.444;2023-02-28T03:45:56;102987.69;;;5.19;48.92
48614;BME280;34408;51.426;5.444;2023-02-28T03:48:31;102986.69;;;5.20;48.35
48614;BME280;34408;51.426;5.444;2023-02-28T03:51:02;102983.88;;;5.21;48.88
48614;BME280;34408;51.426;5.444;2023-02-28T03:53:34;102984.84;;;5.20;48.71
48614;BME280;34408;51.426;5.444;2023-02-28T03:56:06;102987.50;;;5.20;48.89
48614;BME280;34408;51.426;5.444;2023-02-28T03:58:41;102982.47;;;5.17;48.57
48614;BME280;34408;51.426;5.444;2023-02-28T04:01:15;102987.50;;;5.20;48.51
48614;BME280;34408;51.426;5.444;2023-02-28T04:03:44;102988.53;;;5.19;48.46
48614;BME280;34408;51.426;5.444;2023-02-28T04:06:15;102990.47;;;5.17;48.60
48614;BME280;34408;51.426;5.444;2023-02-28T04:08:45;102993.97;;;5.18;48.90
48614;BME280;34408;51.426;5.444;2023-02-28T04:11:19;102997.63;;;5.17;49.31
48614;BME280;34408;51.426;5.444;2023-02-28T04:13:47;102997.63;;;5.17;49.04
48614;BME280;34408;51.426;5.444;2023-02-28T04:16:15;102994.97;;;5.17;48.83
48614;BME280;34408;51.426;5.444;2023-02-28T04:18:59;102995.81;;;5.17;48.90
48614;BME280;34408;51.426;5.444;2023-02-28T04:21:29;102995.81;;;5.17;49.33
48614;BME280;34408;51.426;5.444;2023-02-28T04:23:59;102990.47;;;5.17;48.94
48614;BME280;34408;51.426;5.444;2023-02-28T04:26:28;102996.66;;;5.18;48.73
48614;BME280;34408;51.426;5.444;2023-02-28T04:28:57;102987.09;;;5.15;49.37
48614;BME280;34408;51.426;5.444;2023-02-28T04:31:25;103002.13;;;5.16;49.39
48614;BME280;34408;51.426;5.444;2023-02-28T04:33:53;103007.44;;;5.16;49.04
48614;BME280;34408;51.426;5.444;2023-02-28T04:36:21;102999.59;;;5.15;48.60
48614;BME280;34408;51.426;5.444;2023-02-28T04:38:49;102992.56;;;5.14;48.63
48614;BME280;34408;51.426;5.444;2023-02-28T04:41:19;103003.22;;;5.14;48.83
48614;BME280;34408;51.426;5.444;2023-02-28T04:43:47;103000.56;;;5.14;48.80
48614;BME280;34408;51.426;5.444;2023-02-28T04:46:14;103006.03;;;5.12;49.18
48614;BME280;34408;51.426;5.444;2023-02-28T04:48:44;103013.03;;;5.13;49.31
48614;BME280;34408;51.426;5.444;2023-02-28T04:51:13;103011.22;;;5.14;49.36
48614;BME280;34408;51.426;5.444;2023-02-28T04:53:42;103006.03;;;5.12;48.85
48614;BME280;34408;51.426;5.444;2023-02-28T04:56:11;102999.97;;;5.10;48.94
48614;BME280;34408;51.426;5.444;2023-02-28T04:58:41;103000.69;;;5.12;48.95
48614;BME280;34408;51.426;5.444;2023-02-28T05:01:17;103009.66;;;5.11;49.05
48614;BME280;34408;51.426;5.444;2023-02-28T05:03:46;103004.47;;;5.10;48.90
48614;BME280;34408;51.426;5.444;2023-02-28T05:06:14;103001.94;;;5.08;48.84
48614;BME280;34408;51.426;5.444;2023-02-28T05:08:42;103001.94;;;5.08;48.83
48614;BME280;34408;51.426;5.444;2023-02-28T05:11:15;103000.13;;;5.09;49.27
48614;BME280;34408;51.426;5.444;2023-02-28T05:13:45;103002.91;;;5.07;48.88
48614;BME280;34408;51.426;5.444;2023-02-28T05:16:13;103010.91;;;5.07;49.37
48614;BME280;34408;51.426;5.444;2023-02-28T05:18:42;103013.56;;;5.07;49.02
48614;BME280;34408;51.426;5.444;2023-02-28T05:21:28;103012.72;;;5.07;49.16
48614;BME280;34408;51.426;5.444;2023-02-28T05:23:58;103017.22;;;5.06;49.00
48614;BME280;34408;51.426;5.444;2023-02-28T05:26:27;103023.38;;;5.07;48.91
48614;BME280;34408;51.426;5.444;2023-02-28T05:28:56;103015.41;;;5.07;49.03
48614;BME280;34408;51.426;5.444;2023-02-28T05:31:24;103018.06;;;5.07;48.75
48614;BME280;34408;51.426;5.444;2023-02-28T05:33:52;103024.38;;;5.06;48.83
48614;BME280;34408;51.426;5.444;2023-02-28T05:36:20;103016.63;;;5.03;48.91
48614;BME280;34408;51.426;5.444;2023-02-28T05:38:49;103023.78;;;5.02;48.96
48614;BME280;34408;51.426;5.444;2023-02-28T05:41:18;103020.28;;;5.02;49.41
48614;BME280;34408;51.426;5.444;2023-02-28T05:43:47;103021.97;;;5.03;49.34
48614;BME280;34408;51.426;5.444;2023-02-28T05:46:16;103024.75;;;5.01;49.50
48614;BME280;34408;51.426;5.444;2023-02-28T05:48:46;103023.06;;;5.00;49.39
48614;BME280;34408;51.426;5.444;2023-02-28T05:51:15;103018.84;;;4.98;48.95
48614;BME280;34408;51.426;5.444;2023-02-28T05:53:43;103037.38;;;4.99;49.38
48614;BME280;34408;51.426;5.444;2023-02-28T05:56:10;103004.63;;;4.87;49.34
48614;BME280;34408;51.426;5.444;2023-02-28T05:58:38;103023.91;;;5.01;49.27
48614;BME280;34408;51.426;5.444;2023-02-28T06:01:22;103024.06;;;4.99;48.86
48614;BME280;34408;51.426;5.444;2023-02-28T06:03:51;103019.88;;;5.06;49.46
48614;BME280;34408;51.426;5.444;2023-02-28T06:06:19;103021.34;;;5.20;48.42
48614;BME280;34408;51.426;5.444;2023-02-28T06:08:46;103025.19;;;5.37;48.03
48614;BME280;34408;51.426;5.444;2023-02-28T06:11:14;103028.31;;;5.51;47.97
48614;BME280;34408;51.426;5.444;2023-02-28T06:13:42;103019.25;;;5.64;47.90
48614;BME280;34408;51.426;5.444;2023-02-28T06:16:11;103025.28;;;5.66;47.61
48614;BME280;34408;51.426;5.444;2023-02-28T06:18:40;103026.81;;;5.59;47.66
48614;BME280;34408;51.426;5.444;2023-02-28T06:21:08;103031.97;;;5.50;48.13
48614;BME280;34408;51.426;5.444;2023-02-28T06:23:36;103037.97;;;5.43;48.54
48614;BME280;34408;51.426;5.444;2023-02-28T06:26:04;103032.06;;;5.39;48.51
48614;BME280;34408;51.426;5.444;2023-02-28T06:28:32;103027.88;;;5.46;48.11
48614;BME280;34408;51.426;5.444;2023-02-28T06:30:59;103024.84;;;5.61;47.72
48614;BME280;34408;51.426;5.444;2023-02-28T06:33:32;103032.19;;;5.78;47.55
48614;BME280;34408;51.426;5.444;2023-02-28T06:36:02;103048.22;;;5.87;47.23
48614;BME280;34408;51.426;5.444;2023-02-28T06:38:30;103041.34;;;5.85;47.08
48614;BME280;34408;51.426;5.444;2023-02-28T06:40:59;103041.03;;;5.78;47.17
48614;BME280;34408;51.426;5.444;2023-02-28T06:43:29;103044.25;;;5.72;47.47
48614;BME280;34408;51.426;5.444;2023-02-28T06:45:59;103044.09;;;5.64;47.83
48614;BME280;34408;51.426;5.444;2023-02-28T06:48:28;103045.63;;;5.57;47.89
48614;BME280;34408;51.426;5.444;2023-02-28T06:51:03;103041.94;;;5.48;47.79
48614;BME280;34408;51.426;5.444;2023-02-28T06:53:31;103045.13;;;5.42;47.87
48614;BME280;34408;51.426;5.444;2023-02-28T06:56:03;103043.00;;;5.36;47.81
48614;BME280;34408;51.426;5.444;2023-02-28T06:58:32;103046.91;;;5.32;48.19
48614;BME280;34408;51.426;5.444;2023-02-28T07:00:59;103056.16;;;5.28;47.81
48614;BME280;34408;51.426;5.444;2023-02-28T07:03:27;103051.34;;;5.22;48.16
48614;BME280;34408;51.426;5.444;2023-02-28T07:05:55;103050.69;;;5.20;48.03
48614;BME280;34408;51.426;5.444;2023-02-28T07:08:25;103051.34;;;5.12;48.19
48614;BME280;34408;51.426;5.444;2023-02-28T07:10:54;103055.69;;;5.13;48.44
48614;BME280;34408;51.426;5.444;2023-02-28T07:13:23;103067.19;;;5.14;47.80
48614;BME280;34408;51.426;5.444;2023-02-28T07:15:54;103072.53;;;5.14;47.86
48614;BME280;34408;51.426;5.444;2023-02-28T07:18:23;103076.44;;;5.10;48.50
48614;BME280;34408;51.426;5.444;2023-02-28T07:20:51;103073.75;;;5.10;48.17
48614;BME280;34408;51.426;5.444;2023-02-28T07:23:19;103080.19;;;5.07;48.31
48614;BME280;34408;51.426;5.444;2023-02-28T07:25:49;103086.38;;;5.08;48.26
48614;BME280;34408;51.426;5.444;2023-02-28T07:28:17;103077.66;;;5.06;47.70
48614;BME280;34408;51.426;5.444;2023-02-28T07:30:45;103085.53;;;5.07;48.33
48614;BME280;34408;51.426;5.444;2023-02-28T07:33:14;103085.53;;;5.07;48.01
48614;BME280;34408;51.426;5.444;2023-02-28T07:35:42;103083.13;;;5.04;48.08
48614;BME280;34408;51.426;5.444;2023-02-28T07:38:11;103082.16;;;5.05;47.51
48614;BME280;34408;51.426;5.444;2023-02-28T07:40:40;103082.03;;;5.07;47.98
48614;BME280;34408;51.426;5.444;2023-02-28T07:43:09;103080.34;;;5.06;47.60
48614;BME280;34408;51.426;5.444;2023-02-28T07:45:36;103083.84;;;5.06;47.91
48614;BME280;34408;51.426;5.444;2023-02-28T07:48:05;103079.34;;;5.07;47.85
48614;BME280;34408;51.426;5.444;2023-02-28T07:50:33;103080.91;;;5.09;47.33
48614;BME280;34408;51.426;5.444;2023-02-28T07:53:01;103087.22;;;5.08;47.37
48614;BME280;34408;51.426;5.444;2023-02-28T07:55:29;103086.38;;;5.08;47.26
48614;BME280;34408;51.426;5.444;2023-02-28T07:57:57;103088.31;;;5.06;47.69
48614;BME280;34408;51.426;5.444;2023-02-28T08:00:26;103099.84;;;5.06;47.02
48614;BME280;34408;51.426;5.444;2023-02-28T08:02:55;103096.19;;;5.07;47.07
48614;BME280;34408;51.426;5.444;2023-02-28T08:05:23;103091.00;;;5.06;47.87
48614;BME280;34408;51.426;5.444;2023-02-28T08:07:51;103099.00;;;5.06;48.10
48614;BME280;34408;51.426;5.444;2023-02-28T08:10:19;103096.31;;;5.06;47.78
48614;BME280;34408;51.426;5.444;2023-02-28T08:12:47;103090.16;;;5.05;48.06
48614;BME280;34408;51.426;5.444;2023-02-28T08:15:15;103098.13;;;5.05;47.20
48614;BME280;34408;51.426;5.444;2023-02-28T08:17:44;103096.44;;;5.04;47.28
48614;BME280;34408;51.426;5.444;2023-02-28T08:20:12;103094.88;;;5.02;47.37
48614;BME280;34408;51.426;5.444;2023-02-28T08:22:40;103092.94;;;5.04;47.51
48614;BME280;34408;51.426;5.444;2023-02-28T08:25:11;103090.28;;;5.04;46.64
48614;BME280;34408;51.426;5.444;2023-02-28T08:27:41;103092.94;;;5.04;46.41
48614;BME280;34408;51.426;5.444;2023-02-28T08:30:10;103093.78;;;5.04;46.42
48614;BME280;34408;51.426;5.444;2023-02-28T08:32:38;103092.94;;;5.04;46.14
48614;BME280;34408;51.426;5.444;2023-02-28T08:35:09;103094.88;;;5.02;45.84
48614;BME280;34408;51.426;5.444;2023-02-28T08:37:36;103095.75;;;5.02;46.97
48614;BME280;34408;51.426;5.444;2023-02-28T08:40:06;103093.06;;;5.02;46.11
48614;BME280;34408;51.426;5.444;2023-02-28T08:42:34;103094.50;;;5.06;46.18
48614;BME280;34408;51.426;5.444;2023-02-28T08:45:02;103087.03;;;5.00;46.20
48614;BME280;34408;51.426;5.444;2023-02-28T08:47:29;103081.25;;;4.95;46.11
48614;BME280;34408;51.426;5.444;2023-02-28T08:49:57;103087.41;;;4.96;45.93
48614;BME280;34408;51.426;5.444;2023-02-28T08:52:26;103086.31;;;4.98;45.27
48614;BME280;34408;51.426;5.444;2023-02-28T08:54:54;103085.34;;;4.99;46.39
48614;BME280;34408;51.426;5.444;2023-02-28T08:57:22;103082.53;;;5.01;46.12
48614;BME280;34408;51.426;5.444;2023-02-28T08:59:52;103085.06;;;5.02;46.53
48614;BME280;34408;51.426;5.444;2023-02-28T09:02:20;103091.25;;;5.03;45.58
48614;BME280;34408;51.426;5.444;2023-02-28T09:04:47;103078.84;;;5.13;44.93
48614;BME280;34408;51.426;5.444;2023-02-28T09:07:15;103078.59;;;5.26;44.18
48614;BME280;34408;51.426;5.444;2023-02-28T09:09:44;103091.31;;;5.43;43.78
48614;BME280;34408;51.426;5.444;2023-02-28T09:12:22;103092.25;;;5.63;44.76
48614;BME280;34408;51.426;5.444;2023-02-28T09:14:50;103074.19;;;5.76;44.19
48614;BME280;34408;51.426;5.444;2023-02-28T09:17:18;103084.25;;;6.03;43.76
48614;BME280;34408;51.426;5.444;2023-02-28T09:19:47;103083.59;;;6.20;43.08
48614;BME280;34408;51.426;5.444;2023-02-28T09:22:15;103078.13;;;6.31;42.89
48614;BME280;34408;51.426;5.444;2023-02-28T09:24:44;103087.13;;;6.49;42.77
48614;BME280;34408;51.426;5.444;2023-02-28T09:27:12;103082.78;;;6.58;41.92
48614;BME280;34408;51.426;5.444;2023-02-28T09:29:40;103076.72;;;6.66;41.24
48614;BME280;34408;51.426;5.444;2023-02-28T09:32:08;103075.59;;;6.78;40.79
48614;BME280;34408;51.426;5.444;2023-02-28T09:34:37;103076.97;;;6.92;40.51
48614;BME280;34408;51.426;5.444;2023-02-28T09:37:05;103078.66;;;6.93;40.93
48614;BME280;34408;51.426;5.444;2023-02-28T09:39:33;103070.66;;;6.93;40.51
48614;BME280;34408;51.426;5.444;2023-02-28T09:42:03;103082.97;;;7.03;40.31
48614;BME280;34408;51.426;5.444;2023-02-28T09:44:36;103079.03;;;7.07;40.22
48614;BME280;34408;51.426;5.444;2023-02-28T09:47:11;103074.94;;;7.13;40.39
48614;BME280;34408;51.426;5.444;2023-02-28T09:49:42;103082.81;;;7.14;39.52
48614;BME280;34408;51.426;5.444;2023-02-28T09:52:17;103075.94;;;7.12;40.09
48614;BME280;34408;51.426;5.444;2023-02-28T09:54:46;103079.00;;;7.17;40.49
48614;BME280;34408;51.426;5.444;2023-02-28T09:57:19;103076.16;;;7.28;40.60
48614;BME280;34408;51.426;5.444;2023-02-28T10:00:06;103064.03;;;7.34;40.35
48614;BME280;34408;51.426;5.444;2023-02-28T10:05:28;103065.75;;;7.25;40.32
48614;BME280;34408;51.426;5.444;2023-02-28T10:08:05;103069.31;;;7.06;40.52
48614;BME280;34408;51.426;5.444;2023-02-28T10:10:36;103073.47;;;6.91;41.01
48614;BME280;34408;51.426;5.444;2023-02-28T10:13:16;103062.50;;;6.75;41.81
48614;BME280;34408;51.426;5.444;2023-02-28T10:15:48;103069.28;;;6.60;41.58
48614;BME280;34408;51.426;5.444;2023-02-28T10:18:22;103067.59;;;6.49;41.57
48614;BME280;34408;51.426;5.444;2023-02-28T10:20:53;103062.81;;;6.43;41.47
48614;BME280;34408;51.426;5.444;2023-02-28T10:23:26;103066.75;;;6.39;41.66
48614;BME280;34408;51.426;5.444;2023-02-28T10:25:59;103053.94;;;6.33;42.30
48614;BME280;34408;51.426;5.444;2023-02-28T10:28:29;103051.41;;;6.31;42.54
48614;BME280;34408;51.426;5.444;2023-02-28T10:30:58;103057.88;;;6.29;43.18
48614;BME280;34408;51.426;5.444;2023-02-28T10:33:29;103055.06;;;6.30;42.94
48614;BME280;34408;51.426;5.444;2023-02-28T10:35:58;103055.22;;;6.29;42.10
48614;BME280;34408;51.426;5.444;2023-02-28T10:38:27;103044.81;;;6.26;42.86
48614;BME280;34408;51.426;5.444;2023-02-28T10:41:04;103042.56;;;6.21;42.67
48614;BME280;34408;51.426;5.444;2023-02-28T10:43:34;103045.38;;;6.19;42.37
48614;BME280;34408;51.426;5.444;2023-02-28T10:46:04;103058.84;;;6.18;42.53
48614;BME280;34408;51.426;5.444;2023-02-28T10:48:34;103058.00;;;6.17;43.02
48614;BME280;34408;51.426;5.444;2023-02-28T10:51:05;103042.97;;;6.16;43.48
48614;BME280;34408;51.426;5.444;2023-02-28T10:53:38;103048.03;;;6.19;43.28
48614;BME280;34408;51.426;5.444;2023-02-28T10:56:26;103039.19;;;6.19;43.10
48614;BME280;34408;51.426;5.444;2023-02-28T10:58:57;103046.06;;;6.22;42.64
48614;BME280;34408;51.426;5.444;2023-02-28T11:01:36;103032.31;;;6.26;42.55
48614;BME280;34408;51.426;5.444;2023-02-28T11:04:16;103044.53;;;6.29;42.38
48614;BME280;34408;51.426;5.444;2023-02-28T11:06:45;103029.91;;;6.33;42.58
48614;BME280;34408;51.426;5.444;2023-02-28T11:09:22;103035.41;;;6.31;41.71
48614;BME280;34408;51.426;5.444;2023-02-28T11:11:50;103034.28;;;6.34;42.59
48614;BME280;34408;51.426;5.444;2023-02-28T11:14:22;103035.53;;;6.39;42.76
48614;BME280;34408;51.426;5.444;2023-02-28T11:16:52;103027.25;;;6.42;43.04
48614;BME280;34408;51.426;5.444;2023-02-28T11:19:24;103027.81;;;6.46;43.50
48614;BME280;34408;51.426;5.444;2023-02-28T11:21:55;103029.78;;;6.53;43.99
48614;BME280;34408;51.426;5.444;2023-02-28T11:24:28;103031.31;;;6.56;42.43
48614;BME280;34408;51.426;5.444;2023-02-28T11:26:57;103021.47;;;6.57;42.63
48614;BME280;34408;51.426;5.444;2023-02-28T11:29:28;103012.47;;;6.58;42.70
48614;BME280;34408;51.426;5.444;2023-02-28T11:32:03;103020.91;;;6.63;42.98
48614;BME280;34408;51.426;5.444;2023-02-28T11:34:32;103018.66;;;6.68;42.68
48614;BME280;34408;51.426;5.444;2023-02-28T11:37:01;103024.69;;;6.70;43.54
48614;BME280;34408;51.426;5.444;2023-02-28T11:39:32;103019.16;;;6.91;43.17
48614;BME280;34408;51.426;5.444;2023-02-28T11:42:11;103005.56;;;7.11;43.16
48614;BME280;34408;51.426;5.444;2023-02-28T11:44:51;103007.56;;;7.37;42.49
48614;BME280;34408;51.426;5.444;2023-02-28T11:47:32;103005.19;;;7.61;41.58
48614;BME280;34408;51.426;5.444;2023-02-28T11:50:18;103007.75;;;7.80;41.41
48614;BME280;34408;51.426;5.444;2023-02-28T11:52:51;102999.72;;;7.80;40.36
48614;BME280;34408;51.426;5.444;2023-02-28T11:55:24;103004.00;;;7.73;41.51
48614;BME280;34408;51.426;5.444;2023-02-28T11:58:02;102999.53;;;7.64;42.05
48614;BME280;34408;51.426;5.444;2023-02-28T12:00:47;102995.09;;;7.55;42.49
48614;BME280;34408;51.426;5.444;2023-02-28T12:03:26;103001.44;;;7.54;43.32
48614;BME280;34408;51.426;5.444;2023-02-28T12:06:02;103002.31;;;7.45;42.63
48614;BME280;34408;51.426;5.444;2023-02-28T12:08:44;102995.88;;;7.38;42.46
48614;BME280;34408;51.426;5.444;2023-02-28T12:11:23;102992.13;;;7.31;42.36
48614;BME280;34408;51.426;5.444;2023-02-28T12:14:18;102988.06;;;7.27;43.24
48614;BME280;34408;51.426;5.444;2023-02-28T12:17:00;102993.69;;;7.24;42.79
48614;BME280;34408;51.426;5.444;2023-02-28T12:19:38;102986.81;;;7.21;42.37
48614;BME280;34408;51.426;5.444;2023-02-28T12:22:22;103002.44;;;7.16;41.23
48614;BME280;34408;51.426;5.444;2023-02-28T12:25:21;102986.56;;;7.14;41.98
48614;BME280;34408;51.426;5.444;2023-02-28T12:27:51;102976.84;;;7.13;43.18
48614;BME280;34408;51.426;5.444;2023-02-28T12:30:23;102978.69;;;7.13;42.52
48614;BME280;34408;51.426;5.444;2023-02-28T12:32:56;102979.81;;;7.10;41.61
48614;BME280;34408;51.426;5.444;2023-02-28T12:35:32;102982.19;;;7.13;42.90
48614;BME280;34408;51.426;5.444;2023-02-28T12:38:04;102974.19;;;7.13;42.76
48614;BME280;34408;51.426;5.444;2023-02-28T12:40:42;102976.84;;;7.13;42.78
48614;BME280;34408;51.426;5.444;2023-02-28T12:43:13;102976.16;;;7.11;42.21
48614;BME280;34408;51.426;5.444;2023-02-28T12:45:46;102964.16;;;7.15;42.59
48614;BME280;34408;51.426;5.444;2023-02-28T12:48:22;102966.00;;;7.15;42.75
48614;BME280;34408;51.426;5.444;2023-02-28T12:50:51;102961.91;;;7.21;43.18
48614;BME280;34408;51.426;5.444;2023-02-28T12:53:23;102962.75;;;7.21;42.90
48614;BME280;34408;51.426;5.444;2023-02-28T12:56:07;102954.56;;;7.23;43.06
48614;BME280;34408;51.426;5.444;2023-02-28T12:58:39;102958.22;;;7.22;42.49
48614;BME280;34408;51.426;5.444;2023-02-28T13:04:25;102946.53;;;7.23;42.58
48614;BME280;34408;51.426;5.444;2023-02-28T13:07:11;102937.38;;;7.25;42.78
48614;BME280;34408;51.426;5.444;2023-02-28T13:09:51;102936.41;;;7.26;43.35
48614;BME280;34408;51.426;5.444;2023-02-28T13:12:20;102930.59;;;7.31;43.46
48614;BME280;34408;51.426;5.444;2023-02-28T13:14:49;102919.59;;;7.34;44.05
48614;BME280;34408;51.426;5.444;2023-02-28T13:17:19;102934.06;;;7.41;43.47
48614;BME280;34408;51.426;5.444;2023-02-28T13:19:58;102932.38;;;7.40;42.47
48614;BME280;34408;51.426;5.444;2023-02-28T13:22:39;102929.56;;;7.41;42.42
48614;BME280;34408;51.426;5.444;2023-02-28T13:28:09;102935.59;;;7.43;43.05
48614;BME280;34408;51.426;5.444;2023-02-28T13:31:03;102926.56;;;7.44;43.36
48614;BME280;34408;51.426;5.444;2023-02-28T13:33:32;102916.03;;;7.43;43.17
48614;BME280;34408;51.426;5.444;2023-02-28T13:36:08;102923.59;;;7.47;42.91
48614;BME280;34408;51.426;5.444;2023-02-28T13:38:39;102919.09;;;7.48;42.79